createdAt,value
2018-04-23T00:00:39.941Z,98375
2018-04-23T00:03:08.297Z,98372
2018-04-23T00:05:36.510Z,98375
2018-04-23T00:08:04.609Z,98378
2018-04-23T00:10:33.901Z,98372
2018-04-23T00:13:01.981Z,98374
2018-04-23T00:15:30.053Z,98372
2018-04-23T00:17:58.400Z,98372
2018-04-23T00:20:26.490Z,98372
2018-04-23T00:22:54.562Z,98366
2018-04-23T00:25:22.628Z,98368
2018-04-23T00:27:50.699Z,98364
2018-04-23T00:30:18.770Z,98370
2018-04-23T00:32:47.045Z,98371
2018-04-23T00:35:15.121Z,98366
2018-04-23T00:37:43.186Z,98365
2018-04-23T00:40:11.272Z,98365
2018-04-23T00:42:39.329Z,98369
2018-04-23T00:45:07.405Z,98371
2018-04-23T00:47:35.496Z,98368
2018-04-23T00:50:04.308Z,98373
2018-04-23T00:52:32.413Z,98376
2018-04-23T00:55:01.657Z,98379
2018-04-23T00:57:30.524Z,98374
2018-04-23T00:59:58.617Z,98377
2018-04-23T01:02:26.972Z,98372
2018-04-23T01:04:55.046Z,98372
2018-04-23T01:07:23.421Z,98370
2018-04-23T01:09:51.796Z,98373
2018-04-23T01:12:19.869Z,98381
2018-04-23T01:14:47.965Z,98377
2018-04-23T01:17:16.057Z,98379
2018-04-23T01:19:44.899Z,98381
2018-04-23T01:22:12.997Z,98381
2018-04-23T01:24:41.330Z,98382
2018-04-23T01:27:09.398Z,98380
2018-04-23T01:29:37.475Z,98381
2018-04-23T01:32:05.663Z,98382
2018-04-23T01:34:33.765Z,98381
2018-04-23T01:37:01.809Z,98377
2018-04-23T01:39:30.079Z,98386
2018-04-23T01:41:58.152Z,98383
2018-04-23T01:44:26.224Z,98380
2018-04-23T01:46:54.304Z,98382
2018-04-23T01:49:22.961Z,98381
2018-04-23T01:51:51.001Z,98383
2018-04-23T01:54:19.854Z,98377
2018-04-23T01:56:48.053Z,98376
2018-04-23T01:59:16.916Z,98376
2018-04-23T02:01:44.984Z,98384
2018-04-23T02:04:13.044Z,98383
2018-04-23T02:06:41.124Z,98385
2018-04-23T02:09:09.726Z,98386
2018-04-23T02:11:37.780Z,98389
2018-04-23T02:14:05.843Z,98389
2018-04-23T02:16:33.933Z,98391
2018-04-23T02:19:01.993Z,98398
2018-04-23T02:21:30.242Z,98395
2018-04-23T02:23:58.336Z,98403
2018-04-23T02:26:26.425Z,98409
2018-04-23T02:28:54.500Z,98412
2018-04-23T02:31:22.605Z,98413
2018-04-23T02:33:51.436Z,98415
2018-04-23T02:36:19.505Z,98409
2018-04-23T02:38:47.921Z,98408
2018-04-23T02:41:15.993Z,98408
2018-04-23T02:43:44.064Z,98405
2018-04-23T02:46:12.649Z,98404
2018-04-23T02:48:40.716Z,98406
2018-04-23T02:51:08.770Z,98403
2018-04-23T02:53:36.939Z,98399
2018-04-23T02:56:05.013Z,98395
2018-04-23T02:58:33.116Z,98397
2018-04-23T03:01:01.983Z,98397
2018-04-23T03:03:30.056Z,98397
2018-04-23T03:05:58.126Z,98399
2018-04-23T03:08:26.370Z,98392
2018-04-23T03:10:54.700Z,98400
2018-04-23T03:13:22.825Z,98400
2018-04-23T03:15:51.252Z,98400
2018-04-23T03:18:20.145Z,98400
2018-04-23T03:20:49.012Z,98401
2018-04-23T03:23:17.076Z,98404
2018-04-23T03:25:45.145Z,98394
2018-04-23T03:28:13.243Z,98393
2018-04-23T03:30:41.627Z,98392
2018-04-23T03:33:10.513Z,98398
2018-04-23T03:35:38.753Z,98397
2018-04-23T03:38:06.833Z,98399
2018-04-23T03:40:34.938Z,98396
2018-04-23T03:43:03.797Z,98395
2018-04-23T03:45:31.953Z,98393
2018-04-23T03:48:00.018Z,98395
2018-04-23T03:50:28.097Z,98401
2018-04-23T03:52:56.521Z,98398
2018-04-23T03:55:25.401Z,98399
2018-04-23T03:57:53.491Z,98396
2018-04-23T04:00:24.729Z,98393
2018-04-23T04:02:53.563Z,98395
2018-04-23T04:05:21.645Z,98399
2018-04-23T04:07:49.769Z,98408
2018-04-23T04:10:18.659Z,98412
2018-04-23T04:12:47.715Z,98406
2018-04-23T04:15:16.293Z,98417
2018-04-23T04:17:45.498Z,98414
2018-04-23T04:20:13.665Z,98412
2018-04-23T04:22:41.835Z,98409
2018-04-23T04:25:09.941Z,98409
2018-04-23T04:27:38.900Z,98405
2018-04-23T04:30:07.072Z,98403
2018-04-23T04:35:10.285Z,98402
2018-04-23T04:37:38.352Z,98409
2018-04-23T04:40:06.421Z,98412
2018-04-23T04:42:34.509Z,98416
2018-04-23T04:45:02.562Z,98416
2018-04-23T04:47:30.644Z,98419
2018-04-23T04:49:58.733Z,98419
2018-04-23T04:52:26.805Z,98420
2018-04-23T04:54:54.880Z,98428
2018-04-23T04:57:23.226Z,98430
2018-04-23T04:59:51.341Z,98431
2018-04-23T05:02:19.416Z,98445
2018-04-23T05:04:48.362Z,98463
2018-04-23T05:07:16.433Z,98490
2018-04-23T05:09:44.505Z,98500
2018-04-23T05:12:12.913Z,98503
2018-04-23T05:14:40.969Z,98509
2018-04-23T05:17:09.029Z,98514
2018-04-23T05:19:37.824Z,98545
2018-04-23T05:22:06.910Z,98543
2018-04-23T05:24:35.625Z,98540
2018-04-23T05:27:04.324Z,98530
2018-04-23T05:29:32.761Z,98520
2018-04-23T05:32:02.234Z,98517
2018-04-23T05:34:31.681Z,98508
2018-04-23T05:37:00.472Z,98501
2018-04-23T05:39:29.289Z,98496
2018-04-23T05:41:58.552Z,98503
2018-04-23T05:44:27.276Z,98498
2018-04-23T05:46:56.764Z,98493
2018-04-23T05:49:25.364Z,98485
2018-04-23T05:51:54.933Z,98491
2018-04-23T05:54:23.434Z,98487
2018-04-23T05:56:52.140Z,98487
2018-04-23T05:59:20.827Z,98480
2018-04-23T06:01:49.573Z,98492
2018-04-23T06:04:17.965Z,98495
2018-04-23T06:06:46.841Z,98494
2018-04-23T06:09:15.733Z,98492
2018-04-23T06:11:44.148Z,98495
2018-04-23T06:14:12.529Z,98503
2018-04-23T06:16:41.193Z,98509
2018-04-23T06:19:09.797Z,98503
2018-04-23T06:21:38.208Z,98504
2018-04-23T06:24:06.762Z,98508
2018-04-23T06:26:35.617Z,98501
2018-04-23T06:29:05.115Z,98501
2018-04-23T06:31:34.024Z,98501
2018-04-23T06:34:02.838Z,98511
2018-04-23T06:36:32.813Z,98515
2018-04-23T06:39:02.684Z,98519
2018-04-23T06:41:31.273Z,98519
2018-04-23T06:44:00.097Z,98524
2018-04-23T06:46:29.029Z,98525
2018-04-23T06:48:57.673Z,98522
2018-04-23T06:51:25.740Z,98526
2018-04-23T06:53:54.429Z,98531
2018-04-23T06:56:22.533Z,98528
2018-04-23T06:58:50.598Z,98533
2018-04-23T07:01:19.364Z,98535
2018-04-23T07:03:48.340Z,98537
2018-04-23T07:06:16.741Z,98545
2018-04-23T07:08:46.382Z,98545
2018-04-23T07:11:15.192Z,98550
2018-04-23T07:13:43.747Z,98548
2018-04-23T07:16:11.800Z,98554
2018-04-23T07:18:40.364Z,98552
2018-04-23T07:21:09.045Z,98558
2018-04-23T07:23:38.031Z,98557
2018-04-23T07:26:06.932Z,98559
2018-04-23T07:28:35.485Z,98559
2018-04-23T07:31:03.585Z,98557
2018-04-23T07:33:32.496Z,98560
2018-04-23T07:36:01.310Z,98565
2018-04-23T07:38:29.897Z,98570
2018-04-23T07:40:58.676Z,98573
2018-04-23T07:43:28.144Z,98580
2018-04-23T07:45:56.981Z,98580
2018-04-23T07:48:26.490Z,98577
2018-04-23T07:50:56.295Z,98570
2018-04-23T07:53:26.361Z,98573
2018-04-23T07:55:55.148Z,98576
2018-04-23T07:58:23.817Z,98584
2018-04-23T08:00:52.671Z,98578
2018-04-23T08:03:20.823Z,98580
2018-04-23T08:05:49.080Z,98583
2018-04-23T08:08:17.252Z,98576
2018-04-23T08:10:46.253Z,98575
2018-04-23T08:13:14.330Z,98569
2018-04-23T08:15:42.811Z,98573
2018-04-23T08:18:11.994Z,98564
2018-04-23T08:20:41.196Z,98572
2018-04-23T08:23:09.979Z,98566
2018-04-23T08:25:38.409Z,98560
2018-04-23T08:28:07.274Z,98565
2018-04-23T08:30:35.948Z,98562
2018-04-23T08:33:04.817Z,98572
2018-04-23T08:35:33.966Z,98578
2018-04-23T08:38:03.008Z,98575
2018-04-23T08:40:31.824Z,98576
2018-04-23T08:43:00.854Z,98580
2018-04-23T08:45:30.372Z,98578
2018-04-23T08:48:00.187Z,98567
2018-04-23T08:50:29.136Z,98570
2018-04-23T08:52:57.724Z,98563
2018-04-23T08:55:26.528Z,98570
2018-04-23T08:57:56.415Z,98566
2018-04-23T09:00:25.315Z,98572
2018-04-23T09:02:54.108Z,98569
2018-04-23T09:05:23.015Z,98559
2018-04-23T09:07:52.599Z,98555
2018-04-23T09:10:21.480Z,98552
2018-04-23T09:12:49.663Z,98553
2018-04-23T09:15:18.482Z,98553
2018-04-23T09:17:47.959Z,98547
2018-04-23T09:20:16.865Z,98552
2018-04-23T09:22:45.620Z,98563
2018-04-23T09:25:14.586Z,98562
2018-04-23T09:27:43.537Z,98565
2018-04-23T09:30:13.015Z,98572
2018-04-23T09:32:41.531Z,98571
2018-04-23T09:35:11.208Z,98569
2018-04-23T09:37:40.253Z,98562
2018-04-23T09:40:09.829Z,98570
2018-04-23T09:42:39.088Z,98569
2018-04-23T09:45:08.129Z,98558
2018-04-23T09:47:36.814Z,98565
2018-04-23T09:50:05.749Z,98567
2018-04-23T09:52:35.316Z,98559
2018-04-23T09:55:04.149Z,98565
2018-04-23T09:57:33.001Z,98551
2018-04-23T10:00:03.174Z,98552
2018-04-23T10:02:31.949Z,98541
2018-04-23T10:05:00.121Z,98542
2018-04-23T10:07:29.372Z,98536
2018-04-23T10:09:59.197Z,98564
2018-04-23T10:12:28.661Z,98558
2018-04-23T10:14:57.549Z,98548
2018-04-23T10:17:26.270Z,98561
2018-04-23T10:19:55.788Z,98555
2018-04-23T10:22:24.665Z,98565
2018-04-23T10:24:53.237Z,98555
2018-04-23T10:27:21.294Z,98560
2018-04-23T10:29:50.273Z,98558
2018-04-23T10:32:18.372Z,98557
2018-04-23T10:34:47.277Z,98577
2018-04-23T10:37:15.317Z,98571
2018-04-23T10:39:44.133Z,98570
2018-04-23T10:42:12.922Z,98568
2018-04-23T10:44:41.813Z,98566
2018-04-23T10:47:11.510Z,98563
2018-04-23T10:49:39.671Z,98558
2018-04-23T10:52:09.106Z,98563
2018-04-23T10:54:38.612Z,98549
2018-04-23T10:57:08.222Z,98563
2018-04-23T10:59:37.720Z,98558
2018-04-23T11:02:06.559Z,98555
2018-04-23T11:04:35.503Z,98528
2018-04-23T11:07:05.101Z,98555
2018-04-23T11:09:34.097Z,98526
2018-04-23T11:12:02.657Z,98548
2018-04-23T11:14:31.784Z,98541
2018-04-23T11:17:00.692Z,98540
2018-04-23T11:19:29.617Z,98546
2018-04-23T11:21:58.221Z,98543
2018-04-23T11:24:26.328Z,98523
2018-04-23T11:33:42.061Z,98517
2018-04-23T11:36:11.761Z,98526
2018-04-23T11:38:41.506Z,98519
2018-04-23T11:41:10.373Z,98513
2018-04-23T11:43:39.152Z,98532
2018-04-23T11:46:08.802Z,98529
2018-04-23T11:48:38.520Z,98528
2018-04-23T11:51:07.211Z,98538
2018-04-23T11:53:35.324Z,98546
2018-04-23T11:56:04.749Z,98550
2018-04-23T11:58:34.221Z,98549
2018-04-23T12:01:03.941Z,98545
2018-04-23T12:03:33.347Z,98545
2018-04-23T12:06:03.053Z,98536
2018-04-23T12:08:32.405Z,98554
2018-04-23T12:11:01.035Z,98537
2018-04-23T12:13:29.908Z,98531
2018-04-23T12:15:58.008Z,98516
2018-04-23T12:18:27.412Z,98520
2018-04-23T12:20:57.016Z,98523
2018-04-23T12:23:26.790Z,98544
2018-04-23T12:25:55.896Z,98542
2018-04-23T12:28:24.387Z,98538
2018-04-23T12:30:52.952Z,98530
2018-04-23T12:33:21.061Z,98524
2018-04-23T12:35:50.945Z,98517
2018-04-23T12:38:19.037Z,98519
2018-04-23T12:40:48.480Z,98523
2018-04-23T12:43:16.824Z,98516
2018-04-23T12:45:45.660Z,98521
2018-04-23T12:48:14.397Z,98510
2018-04-23T12:50:42.937Z,98509
2018-04-23T12:53:11.869Z,98509
2018-04-23T12:55:41.465Z,98514
2018-04-23T12:58:09.542Z,98519
2018-04-23T13:00:38.341Z,98515
2018-04-23T13:03:07.745Z,98521
2018-04-23T13:05:36.616Z,98532
2018-04-23T13:08:04.686Z,98529
2018-04-23T13:10:33.595Z,98523
2018-04-23T13:13:02.234Z,98518
2018-04-23T13:15:30.821Z,98515
2018-04-23T13:18:00.528Z,98494
2018-04-23T13:20:28.631Z,98505
2018-04-23T13:22:57.517Z,98507
2018-04-23T13:25:27.449Z,98506
2018-04-23T13:27:57.441Z,98506
2018-04-23T13:30:25.538Z,98496
2018-04-23T13:32:54.241Z,98493
2018-04-23T13:35:23.813Z,98488
2018-04-23T13:37:52.909Z,98472
2018-04-23T13:40:20.999Z,98479
2018-04-23T13:42:50.552Z,98474
2018-04-23T13:45:18.642Z,98473
2018-04-23T13:47:47.449Z,98482
2018-04-23T13:50:16.259Z,98482
2018-04-23T13:52:46.136Z,98488
2018-04-23T13:55:14.200Z,98490
2018-04-23T13:57:43.820Z,98491
2018-04-23T14:00:12.793Z,98491
2018-04-23T14:02:42.320Z,98490
2018-04-23T14:05:10.385Z,98503
2018-04-23T14:07:39.060Z,98497
2018-04-23T14:10:07.157Z,98501
2018-04-23T14:12:35.241Z,98489
2018-04-23T14:15:03.340Z,98488
2018-04-23T14:17:32.313Z,98485
2018-04-23T14:20:02.821Z,98486
2018-04-23T14:22:33.453Z,98490
2018-04-23T14:25:01.537Z,98480
2018-04-23T14:27:29.963Z,98474
2018-04-23T14:29:58.038Z,98467
2018-04-23T14:32:26.109Z,98479
2018-04-23T14:34:54.429Z,98466
2018-04-23T14:37:22.480Z,98475
2018-04-23T14:39:50.541Z,98476
2018-04-23T14:42:18.863Z,98485
2018-04-23T14:44:48.641Z,98493
2018-04-23T14:47:16.701Z,98487
2018-04-23T14:49:45.821Z,98487
2018-04-23T14:52:14.921Z,98491
2018-04-23T14:54:42.989Z,98485
2018-04-23T14:57:11.038Z,98486
2018-04-23T14:59:39.105Z,98487
2018-04-23T15:02:07.205Z,98488
2018-04-23T15:04:35.245Z,98491
2018-04-23T15:07:04.033Z,98494
2018-04-23T15:09:32.852Z,98494
2018-04-23T15:12:01.805Z,98501
2018-04-23T15:14:30.501Z,98508
2018-04-23T15:16:58.573Z,98515
2018-04-23T15:19:27.297Z,98509
2018-04-23T15:21:56.647Z,98509
2018-04-23T15:24:24.717Z,98507
2018-04-23T15:26:53.853Z,98501
2018-04-23T15:29:22.862Z,98503
2018-04-23T15:31:51.752Z,98503
2018-04-23T15:34:20.645Z,98506
2018-04-23T15:36:48.714Z,98509
2018-04-23T15:39:17.914Z,98506
2018-04-23T15:41:47.525Z,98513
2018-04-23T15:44:16.398Z,98520
2018-04-23T15:46:46.590Z,98519
2018-04-23T15:49:14.672Z,98515
2018-04-23T15:51:43.700Z,98510
2018-04-23T15:54:12.544Z,98523
2018-04-23T15:56:40.685Z,98525
2018-04-23T15:59:09.096Z,98529
2018-04-23T16:01:38.033Z,98528
2018-04-23T16:04:06.892Z,98536
2018-04-23T16:06:34.989Z,98526
2018-04-23T16:09:03.812Z,98531
2018-04-23T16:11:31.906Z,98542
2018-04-23T16:13:59.973Z,98545
2018-04-23T16:16:28.405Z,98550
2018-04-23T16:18:56.489Z,98555
2018-04-23T16:21:25.355Z,98544
2018-04-23T16:23:54.157Z,98553
2018-04-23T16:26:22.217Z,98550
2018-04-23T16:28:50.289Z,98559
2018-04-23T16:31:18.637Z,98559
2018-04-23T16:33:46.734Z,98556
2018-04-23T16:36:14.870Z,98546
2018-04-23T16:38:43.289Z,98565
2018-04-23T16:41:11.381Z,98561
2018-04-23T16:43:40.265Z,98567
2018-04-23T16:46:09.357Z,98558
2018-04-23T16:48:37.617Z,98568
2018-04-23T16:51:05.709Z,98565
2018-04-23T16:53:34.073Z,98573
2018-04-23T16:56:02.161Z,98570
2018-04-23T16:58:31.020Z,98571
2018-04-23T17:00:59.178Z,98566
2018-04-23T17:03:27.993Z,98568
2018-04-23T17:05:56.056Z,98570
2018-04-23T17:08:24.252Z,98578
2018-04-23T17:10:52.344Z,98576
2018-04-23T17:13:21.424Z,98581
2018-04-23T17:15:49.510Z,98575
2018-04-23T17:18:18.366Z,98581
2018-04-23T17:20:46.978Z,98571
2018-04-23T17:23:15.829Z,98581
2018-04-23T17:25:43.945Z,98575
2018-04-23T17:28:13.029Z,98575
2018-04-23T17:30:41.916Z,98573
2018-04-23T17:33:09.979Z,98581
2018-04-23T17:35:38.955Z,98587
2018-04-23T17:38:07.065Z,98589
2018-04-23T17:40:35.919Z,98595
2018-04-23T17:43:04.009Z,98604
2018-04-23T17:45:32.097Z,98605
2018-04-23T17:48:00.948Z,98603
2018-04-23T17:50:29.409Z,98602
2018-04-23T17:52:57.497Z,98603
2018-04-23T17:55:25.621Z,98608
2018-04-23T17:57:54.929Z,98607
2018-04-23T18:00:23.177Z,98612
2018-04-23T18:02:51.256Z,98620
2018-04-23T18:05:20.124Z,98620
2018-04-23T18:07:48.196Z,98619
2018-04-23T18:10:16.281Z,98620
2018-04-23T18:12:44.385Z,98623
2018-04-23T18:15:12.474Z,98623
2018-04-23T18:17:40.563Z,98626
2018-04-23T18:20:08.869Z,98622
2018-04-23T18:22:36.940Z,98629
2018-04-23T18:25:05.033Z,98631
2018-04-23T18:27:33.980Z,98642
2018-04-23T18:30:02.858Z,98645
2018-04-23T18:32:30.933Z,98644
2018-04-23T18:34:59.018Z,98643
2018-04-23T18:37:27.423Z,98643
2018-04-23T18:39:55.516Z,98651
2018-04-23T18:42:24.340Z,98661
2018-04-23T18:44:52.436Z,98667
2018-04-23T18:47:20.530Z,98671
2018-04-23T18:49:48.657Z,98677
2018-04-23T18:52:17.805Z,98678
2018-04-23T18:54:46.665Z,98687
2018-04-23T18:57:14.766Z,98693
2018-04-23T18:59:43.965Z,98694
2018-04-23T19:02:12.858Z,98697
2018-04-23T19:04:41.716Z,98702
2018-04-23T19:07:10.094Z,98705
2018-04-23T19:09:39.689Z,98705
2018-04-23T19:12:07.773Z,98704
2018-04-23T19:14:35.915Z,98705
2018-04-23T19:17:04.005Z,98710
2018-04-23T19:19:32.228Z,98715
2018-04-23T19:22:00.387Z,98714
2018-04-23T19:24:28.429Z,98719
2018-04-23T19:26:56.512Z,98721
2018-04-23T19:29:24.585Z,98721
2018-04-23T19:31:53.551Z,98720
2018-04-23T19:34:21.653Z,98719
2018-04-23T19:36:50.133Z,98717
2018-04-23T19:39:18.225Z,98727
2018-04-23T19:41:47.117Z,98725
2018-04-23T19:44:16.012Z,98728
2018-04-23T19:46:44.873Z,98730
2018-04-23T19:49:12.950Z,98733
2018-04-23T19:51:41.295Z,98732
2018-04-23T19:54:09.413Z,98735
2018-04-23T19:56:38.392Z,98737
2018-04-23T19:59:06.481Z,98738
2018-04-23T20:01:35.373Z,98742
2018-04-23T20:04:04.540Z,98745
2018-04-23T20:06:32.621Z,98744
2018-04-23T20:09:00.680Z,98748
2018-04-23T20:11:29.089Z,98747
2018-04-23T20:13:57.928Z,98744
2018-04-23T20:16:26.012Z,98742
2018-04-23T20:18:54.429Z,98751
2018-04-23T20:21:23.416Z,98752
2018-04-23T20:23:51.494Z,98746
2018-04-23T20:26:20.354Z,98751
2018-04-23T20:28:48.420Z,98745
2018-04-23T20:31:16.518Z,98750
2018-04-23T20:33:45.691Z,98755
2018-04-23T20:36:13.786Z,98756
2018-04-23T20:38:42.659Z,98758
2018-04-23T20:41:11.013Z,98758
2018-04-23T20:43:39.077Z,98760
2018-04-23T20:46:07.192Z,98761
2018-04-23T20:48:35.747Z,98762
2018-04-23T20:51:03.810Z,98764
2018-04-23T20:53:31.901Z,98761
2018-04-23T20:55:59.989Z,98758
2018-04-23T20:58:28.048Z,98760
2018-04-23T21:00:56.105Z,98763
2018-04-23T21:03:24.188Z,98764
2018-04-23T21:05:52.299Z,98774
2018-04-23T21:08:21.161Z,98773
2018-04-23T21:10:49.567Z,98772
2018-04-23T21:13:18.420Z,98777
2018-04-23T21:15:46.477Z,98784
2018-04-23T21:18:14.857Z,98777
2018-04-23T21:20:42.951Z,98782
2018-04-23T21:23:11.017Z,98779
2018-04-23T21:25:39.345Z,98781
2018-04-23T21:28:08.232Z,98780
2018-04-23T21:30:36.248Z,98786
2018-04-23T21:33:04.624Z,98782
2018-04-23T21:35:32.696Z,98791
2018-04-23T21:38:00.790Z,98790
2018-04-23T21:40:28.896Z,98785
2018-04-23T21:42:57.741Z,98783
2018-04-23T21:45:25.800Z,98793
2018-04-23T21:47:54.077Z,98795
2018-04-23T21:50:22.160Z,98803
2018-04-23T21:52:50.216Z,98803
2018-04-23T21:55:18.298Z,98815
2018-04-23T21:57:46.369Z,98816
2018-04-23T22:00:14.849Z,98818
2018-04-23T22:02:43.332Z,98821
2018-04-23T22:05:11.310Z,98829
2018-04-23T22:07:39.393Z,98826
2018-04-23T22:10:07.942Z,98828
2018-04-23T22:12:36.004Z,98831
2018-04-23T22:15:04.388Z,98832
2018-04-23T22:17:32.813Z,98833
2018-04-23T22:20:00.894Z,98833
2018-04-23T22:22:29.746Z,98837
2018-04-23T22:24:58.022Z,98835
2018-04-23T22:27:26.081Z,98839
2018-04-23T22:29:54.171Z,98844
2018-04-23T22:32:22.765Z,98845
2018-04-23T22:34:50.861Z,98848
2018-04-23T22:37:19.719Z,98845
2018-04-23T22:39:48.044Z,98851
2018-04-23T22:42:16.864Z,98844
2018-04-23T22:44:44.949Z,98850
2018-04-23T22:47:13.037Z,98849
2018-04-23T22:49:41.117Z,98853
2018-04-23T22:52:09.160Z,98854
2018-04-23T22:54:37.760Z,98855
2018-04-23T22:57:07.352Z,98856
2018-04-23T22:59:35.441Z,98857
2018-04-23T23:02:03.616Z,98856
2018-04-23T23:04:31.688Z,98860
2018-04-23T23:06:59.799Z,98856
2018-04-23T23:09:27.845Z,98856
2018-04-23T23:11:56.705Z,98846
2018-04-23T23:14:25.006Z,98854
2018-04-23T23:16:54.072Z,98849
2018-04-23T23:19:22.177Z,98856
2018-04-23T23:21:51.013Z,98858
2018-04-23T23:24:19.125Z,98853
2018-04-23T23:26:47.209Z,98855
2018-04-23T23:29:16.069Z,98855
2018-04-23T23:31:44.233Z,98858
2018-04-23T23:34:12.313Z,98856
2018-04-23T23:36:40.377Z,98853
2018-04-23T23:39:08.654Z,98847
2018-04-23T23:41:36.712Z,98851
2018-04-23T23:44:04.781Z,98852
2018-04-23T23:46:33.114Z,98849
2018-04-23T23:49:01.969Z,98846
2018-04-23T23:51:30.073Z,98847
2018-04-23T23:53:58.399Z,98847
2018-04-23T23:56:26.485Z,98846
2018-04-23T23:58:54.565Z,98845
